createdAt,value
2018-06-28T07:20:57.134Z,87.00
2018-06-28T07:23:25.457Z,88.10
2018-06-28T07:25:53.773Z,87.90
2018-06-28T07:28:22.179Z,86.50
2018-06-28T07:30:50.582Z,85.90
2018-06-28T07:33:18.985Z,85.50
2018-06-28T07:35:47.362Z,84.60
2018-06-28T07:38:16.575Z,84.00
2018-06-28T07:40:45.035Z,83.60
2018-06-28T07:43:13.610Z,82.90
2018-06-28T07:45:42.552Z,82.80
2018-06-28T07:48:11.170Z,79.90
2018-06-28T07:50:39.625Z,80.50
2018-06-28T07:53:08.074Z,81.70
2018-06-28T07:55:36.523Z,81.70
2018-06-28T08:00:33.286Z,80.40
2018-06-28T08:03:01.704Z,79.50
2018-06-28T08:05:30.247Z,78.00
2018-06-28T08:07:58.653Z,77.00
2018-06-28T08:10:27.116Z,76.50
2018-06-28T08:12:55.605Z,75.70
2018-06-28T08:15:24.041Z,73.70
2018-06-28T08:17:52.454Z,74.40
2018-06-28T08:20:21.936Z,73.70
2018-06-28T08:22:50.421Z,72.70
2018-06-28T08:25:19.013Z,72.80
2018-06-28T08:27:47.398Z,72.80
2018-06-28T08:30:16.836Z,73.10
2018-06-28T08:32:45.286Z,72.80
2018-06-28T08:35:13.767Z,72.70
2018-06-28T08:37:42.150Z,72.10
2018-06-28T08:40:10.802Z,70.80
2018-06-28T08:42:41.077Z,70.50
2018-06-28T08:45:10.255Z,71.30
2018-06-28T08:47:45.558Z,70.70
2018-06-28T08:50:14.662Z,70.90
2018-06-28T08:52:43.099Z,72.90
2018-06-28T08:55:11.714Z,71.40
2018-06-28T08:57:50.617Z,71.70
2018-06-28T09:00:19.350Z,72.00
2018-06-28T09:02:48.034Z,71.70
2018-06-28T09:05:17.268Z,71.00
2018-06-28T09:10:14.148Z,70.70
2018-06-28T09:12:42.786Z,71.60
2018-06-28T09:15:13.804Z,72.20
2018-06-28T09:17:42.277Z,70.80
2018-06-28T09:20:10.863Z,71.40
2018-06-28T09:22:41.800Z,71.40
2018-06-28T09:25:10.422Z,70.60
2018-06-28T09:27:42.138Z,71.00
2018-06-28T09:30:10.693Z,69.50
2018-06-28T09:32:39.131Z,68.40
2018-06-28T09:35:08.241Z,66.50
2018-06-28T09:37:37.666Z,65.70
2018-06-28T09:40:06.352Z,67.30
2018-06-28T09:42:35.162Z,66.50
2018-06-28T09:45:03.692Z,66.60
2018-06-28T09:47:32.509Z,64.80
2018-06-28T09:50:00.915Z,65.20
2018-06-28T09:52:30.391Z,65.50
2018-06-28T09:54:58.839Z,64.90
2018-06-28T09:57:27.377Z,64.60
2018-06-28T09:59:57.753Z,63.90
2018-06-28T10:02:26.127Z,64.60
2018-06-28T10:04:54.533Z,63.90
2018-06-28T10:07:22.974Z,66.00
2018-06-28T10:09:51.560Z,64.90
2018-06-28T10:12:19.889Z,63.90
2018-06-28T10:14:48.269Z,64.30
2018-06-28T10:17:22.949Z,64.70
2018-06-28T10:19:51.341Z,64.10
2018-06-28T10:22:19.921Z,64.70
2018-06-28T10:24:48.257Z,63.60
2018-06-28T10:27:16.681Z,61.90
2018-06-28T10:29:45.210Z,62.20
2018-06-28T10:32:13.948Z,63.50
2018-06-28T10:34:42.616Z,62.80
2018-06-28T10:37:11.563Z,62.50
2018-06-28T10:39:40.079Z,61.50
2018-06-28T10:42:09.986Z,61.90
2018-06-28T10:44:38.560Z,62.50
2018-06-28T10:47:07.411Z,60.70
2018-06-28T10:49:36.915Z,61.30
2018-06-28T10:52:06.075Z,62.30
2018-06-28T10:54:34.834Z,62.10
2018-06-28T10:57:03.738Z,62.30
2018-06-28T10:59:38.326Z,61.30
2018-06-28T11:02:06.750Z,61.70
2018-06-28T11:04:35.876Z,62.60
2018-06-28T11:07:04.735Z,61.10
2018-06-28T11:09:33.227Z,59.80
2018-06-28T11:12:01.926Z,60.10
2018-06-28T11:14:31.045Z,61.10
2018-06-28T11:16:59.571Z,59.60
2018-06-28T11:19:28.268Z,58.40
2018-06-28T11:21:57.651Z,58.50
2018-06-28T11:24:26.438Z,58.60
2018-06-28T11:26:55.022Z,58.10
2018-06-28T11:29:24.747Z,57.80
2018-06-28T11:31:53.243Z,57.30
2018-06-28T11:34:23.680Z,56.30
2018-06-28T11:36:52.716Z,55.90
2018-06-28T11:39:25.181Z,56.60
2018-06-28T11:41:54.259Z,56.90
2018-06-28T11:44:23.932Z,57.80
2018-06-28T11:46:52.433Z,56.30
2018-06-28T11:49:21.809Z,56.10
2018-06-28T11:51:50.506Z,56.40
2018-06-28T11:54:25.461Z,56.50
2018-06-28T11:56:55.575Z,56.80
2018-06-28T11:59:24.867Z,56.10
2018-06-28T12:01:53.754Z,55.20
2018-06-28T12:04:24.597Z,55.20
2018-06-28T12:11:54.210Z,53.10
2018-06-28T12:14:23.431Z,54.20
2018-06-28T12:16:54.373Z,53.90
2018-06-28T12:21:51.796Z,54.40
2018-06-28T12:24:20.626Z,53.00
2018-06-28T12:26:49.669Z,54.10
2018-06-28T12:29:18.648Z,53.80
2018-06-28T12:31:47.140Z,51.90
2018-06-28T12:34:15.594Z,52.30
2018-06-28T12:36:44.022Z,51.80
2018-06-28T12:39:12.788Z,51.80
2018-06-28T12:41:41.342Z,51.80
2018-06-28T12:44:09.752Z,52.20
2018-06-28T12:48:02.526Z,51.50
2018-06-28T12:50:31.147Z,51.20
2018-06-28T12:53:01.673Z,50.70
2018-06-28T12:55:45.893Z,51.50
2018-06-28T12:58:14.309Z,51.10
2018-06-28T13:00:42.706Z,49.80
2018-06-28T13:03:11.048Z,50.30
2018-06-28T13:05:39.461Z,51.30
2018-06-28T13:08:08.501Z,51.80
2018-06-28T13:10:36.970Z,52.00
2018-06-28T13:13:06.931Z,52.50
2018-06-28T13:15:35.281Z,51.80
2018-06-28T13:18:03.887Z,50.40
2018-06-28T13:20:32.403Z,50.90
2018-06-28T13:25:35.059Z,51.60
2018-06-28T13:28:04.117Z,51.80
2018-06-28T13:30:32.885Z,50.20
2018-06-28T13:33:01.529Z,50.30
2018-06-28T13:35:30.018Z,51.10
2018-06-28T13:37:58.465Z,51.50
2018-06-28T13:40:27.122Z,52.10
2018-06-28T13:42:55.607Z,52.40
2018-06-28T13:45:24.019Z,51.90
2018-06-28T13:47:53.108Z,51.80
2018-06-28T13:50:21.608Z,50.90
2018-06-28T13:52:50.278Z,51.40
2018-06-28T13:55:18.650Z,48.90
2018-06-28T13:57:48.416Z,49.80
2018-06-28T14:02:45.122Z,51.70
2018-06-28T14:05:13.623Z,50.80
2018-06-28T14:07:42.035Z,50.30
2018-06-28T14:10:14.055Z,48.90
2018-06-28T14:12:42.490Z,47.70
2018-06-28T14:15:11.476Z,47.70
2018-06-28T14:17:40.007Z,46.50
2018-06-28T14:20:09.431Z,47.90
2018-06-28T14:22:40.132Z,49.50
2018-06-28T14:25:08.630Z,49.20
2018-06-28T14:27:38.290Z,46.80
2018-06-28T14:30:09.007Z,44.10
2018-06-28T14:32:40.286Z,44.60
2018-06-28T14:37:38.042Z,44.80
2018-06-28T14:40:07.510Z,41.80
2018-06-28T14:42:36.688Z,41.00
2018-06-28T14:45:06.336Z,43.30
2018-06-28T14:47:36.962Z,43.80
2018-06-28T14:50:06.361Z,42.20
2018-06-28T14:52:35.607Z,41.00
2018-06-28T14:55:08.628Z,41.40
2018-06-28T14:57:37.476Z,40.40
2018-06-28T15:00:07.868Z,41.10
2018-06-28T15:02:37.561Z,41.00
2018-06-28T15:05:06.347Z,41.60
2018-06-28T15:07:34.734Z,41.90
2018-06-28T15:10:03.270Z,41.70
2018-06-28T15:12:31.701Z,39.80
2018-06-28T15:15:02.119Z,39.90
2018-06-28T15:17:30.526Z,39.50
2018-06-28T15:19:58.910Z,40.80
2018-06-28T15:22:27.503Z,39.00
2018-06-28T15:25:24.025Z,36.20
2018-06-28T15:27:59.017Z,37.80
2018-06-28T15:31:22.846Z,37.50
2018-06-28T15:33:52.436Z,37.20
2018-06-28T15:36:23.289Z,36.20
2018-06-28T15:38:52.143Z,34.50
2018-06-28T15:41:21.182Z,35.70
2018-06-28T15:43:49.857Z,38.00
2018-06-28T15:46:18.320Z,37.10
2018-06-28T15:48:46.759Z,35.30
2018-06-28T15:51:30.457Z,34.10
2018-06-28T15:53:59.659Z,34.90
2018-06-28T15:56:35.597Z,36.70
2018-06-28T15:59:36.692Z,37.00
2018-06-28T16:02:06.404Z,37.40
2018-06-28T16:04:35.970Z,36.70
2018-06-28T16:07:05.570Z,36.60
2018-06-28T16:09:36.658Z,35.70
2018-06-28T16:12:07.114Z,36.80
2018-06-28T16:14:38.061Z,35.10
2018-06-28T16:17:08.865Z,34.50
2018-06-28T16:19:41.178Z,34.50
2018-06-28T16:25:09.845Z,33.60
2018-06-28T16:27:39.341Z,35.10
2018-06-28T16:30:14.366Z,35.10
2018-06-28T16:32:45.849Z,33.70
2018-06-28T16:35:16.835Z,34.30
2018-06-28T16:37:45.703Z,35.10
2018-06-28T16:40:15.030Z,36.10
2018-06-28T16:42:44.996Z,35.40
2018-06-28T16:45:14.256Z,36.20
2018-06-28T16:47:44.110Z,35.10
2018-06-28T19:40:37.693Z,55.20
2018-06-28T19:43:09.367Z,56.10
2018-06-28T19:45:38.037Z,56.80
2018-06-28T19:48:06.975Z,56.60
2018-06-28T19:50:41.925Z,57.30
2018-06-28T19:53:17.836Z,57.50
2018-06-28T19:55:46.366Z,58.40
2018-06-28T19:58:14.911Z,58.40
2018-06-28T20:00:48.654Z,58.00
2018-06-28T20:05:50.531Z,59.70
2018-06-28T20:08:19.154Z,59.60
2018-06-28T20:10:48.241Z,60.20
2018-06-28T20:13:22.722Z,60.70
2018-06-28T20:15:58.562Z,60.50
2018-06-28T20:18:34.041Z,61.00
2018-06-28T20:21:03.177Z,60.70
2018-06-28T20:23:32.055Z,61.40
2018-06-28T20:26:06.399Z,61.90
2018-06-28T20:28:40.799Z,62.30
2018-06-28T20:31:14.668Z,61.20
2018-06-28T20:33:49.119Z,61.50
2018-06-28T20:36:18.184Z,61.70
2018-06-28T20:38:47.516Z,63.60
2018-06-28T20:41:16.657Z,63.20
2018-06-28T20:43:46.029Z,63.20
2018-06-28T20:46:14.745Z,63.20
2018-06-28T20:48:44.442Z,64.10
2018-06-28T20:51:14.137Z,63.60
2018-06-28T20:53:43.856Z,63.80
2018-06-28T20:56:13.262Z,63.90
2018-06-28T20:58:42.646Z,64.20
2018-06-28T21:01:11.528Z,63.80
2018-06-28T21:03:40.097Z,63.80
2018-06-28T21:06:08.901Z,64.10
2018-06-28T21:08:37.861Z,65.10
2018-06-28T21:11:07.200Z,65.60
2018-06-28T21:13:36.040Z,66.40
2018-06-28T21:16:05.886Z,67.60
2018-06-28T21:18:34.888Z,68.50
2018-06-28T21:21:03.629Z,69.20
2018-06-28T21:23:34.096Z,70.40
2018-06-28T21:26:03.594Z,71.50
2018-06-28T21:28:32.415Z,71.20
2018-06-28T21:31:02.113Z,72.50
2018-06-28T21:35:58.970Z,73.00
2018-06-28T21:38:27.385Z,72.90
2018-06-28T21:40:56.019Z,73.30
2018-06-28T21:43:27.433Z,74.00
2018-06-28T21:45:56.006Z,75.00
2018-06-28T21:48:25.872Z,76.00
2018-06-28T21:50:54.395Z,77.50
2018-06-28T21:53:22.869Z,78.80
2018-06-28T21:55:51.329Z,79.30
2018-06-28T21:58:19.707Z,79.60
2018-06-28T22:03:22.553Z,81.00
2018-06-28T22:05:52.685Z,81.50
2018-06-28T22:08:22.739Z,82.50
2018-06-28T22:10:51.692Z,81.70
2018-06-28T22:13:23.600Z,82.40
2018-06-28T22:15:52.475Z,82.90
2018-06-28T22:18:33.511Z,81.90
2018-06-28T22:21:02.413Z,81.20
2018-06-28T22:23:31.193Z,81.80
2018-06-28T22:26:02.175Z,83.40
2018-06-28T22:28:31.526Z,83.50
2018-06-28T22:31:00.541Z,84.20
2018-06-28T22:33:31.028Z,84.20
2018-06-28T22:36:00.119Z,83.00
2018-06-28T22:38:29.112Z,81.40
2018-06-28T22:40:57.942Z,80.70
2018-06-28T22:43:30.985Z,80.50
2018-06-28T22:46:01.053Z,81.10
2018-06-28T22:48:30.598Z,81.60
2018-06-28T22:51:03.782Z,81.40
2018-06-28T22:53:44.055Z,80.00
2018-06-28T22:56:24.484Z,79.30
2018-06-28T23:06:41.835Z,77.90
2018-06-28T23:09:10.830Z,77.80
2018-06-28T23:11:39.777Z,77.30
2018-06-28T23:14:08.790Z,77.90
2018-06-28T23:16:39.963Z,78.10
2018-06-28T23:19:09.690Z,78.50
2018-06-28T23:21:38.693Z,78.10
2018-06-28T23:24:07.459Z,78.90
2018-06-28T23:26:36.743Z,79.10
2018-06-28T23:29:05.636Z,79.60
2018-06-28T23:31:34.489Z,79.70
2018-06-28T23:34:03.121Z,80.10
2018-06-28T23:39:00.175Z,80.90
2018-06-28T23:41:29.482Z,80.70
2018-06-28T23:43:59.437Z,80.60
2018-06-28T23:49:00.462Z,82.40
2018-06-28T23:51:30.403Z,82.70
2018-06-28T23:53:59.778Z,82.80
2018-06-28T23:56:28.483Z,83.10
2018-06-28T23:58:57.920Z,83.50
